createdAt,value
2023-12-26T00:00:13.237Z,82.58
2023-12-26T00:02:40.137Z,82.42
2023-12-26T00:05:07.966Z,82.58
2023-12-26T00:07:38.095Z,82.62
2023-12-26T00:10:08.366Z,82.63
2023-12-26T00:12:40.853Z,82.51
2023-12-26T00:15:08.923Z,81.21
2023-12-26T00:17:36.484Z,81.22
2023-12-26T00:20:06.217Z,80.29
2023-12-26T00:22:35.699Z,80.15
2023-12-26T00:25:05.984Z,81.06
2023-12-26T00:27:33.247Z,81.88
2023-12-26T00:30:03.495Z,81.04
2023-12-26T00:32:34.325Z,80.68
2023-12-26T00:35:04.651Z,81.63
2023-12-26T00:37:33.161Z,81.98
2023-12-26T00:40:03.992Z,81.67
2023-12-26T00:42:35.022Z,82.36
2023-12-26T00:45:02.063Z,82.49
2023-12-26T00:47:29.513Z,82.47
2023-12-26T00:50:00.671Z,81.81
2023-12-26T00:52:28.810Z,82.31
2023-12-26T00:54:56.101Z,81.27
2023-12-26T00:57:23.726Z,81.51
2023-12-26T00:59:54.071Z,81.24
2023-12-26T01:02:23.909Z,81.20
2023-12-26T01:04:50.975Z,81.02
2023-12-26T01:07:17.933Z,81.07
2023-12-26T01:09:45.132Z,80.13
2023-12-26T01:12:11.987Z,79.65
2023-12-26T01:14:39.293Z,80.08
2023-12-26T01:17:06.115Z,79.22
2023-12-26T01:19:35.609Z,79.81
2023-12-26T01:22:02.419Z,79.65
2023-12-26T01:24:29.230Z,79.84
2023-12-26T01:27:04.531Z,79.72
2023-12-26T01:29:45.546Z,80.34
2023-12-26T01:32:12.365Z,81.03
2023-12-26T01:34:39.218Z,80.87
2023-12-26T01:37:06.066Z,80.24
2023-12-26T01:39:35.651Z,80.80
2023-12-26T01:42:02.650Z,80.36
2023-12-26T01:44:29.482Z,80.24
2023-12-26T01:46:56.499Z,79.77
2023-12-26T01:49:23.844Z,79.30
2023-12-26T01:51:53.708Z,78.82
2023-12-26T01:54:23.936Z,79.01
2023-12-26T01:56:51.220Z,78.49
2023-12-26T01:59:21.122Z,79.19
2023-12-26T02:01:48.261Z,78.17
2023-12-26T02:04:15.650Z,78.17
2023-12-26T02:06:45.799Z,78.00
2023-12-26T02:09:13.146Z,78.71
2023-12-26T02:11:41.275Z,78.95
2023-12-26T02:14:08.498Z,78.53
2023-12-26T02:16:38.381Z,78.54
2023-12-26T02:19:05.512Z,79.28
2023-12-26T02:21:33.955Z,79.36
2023-12-26T02:24:01.111Z,79.56
2023-12-26T02:26:29.797Z,80.10
2023-12-26T02:28:58.213Z,80.26
2023-12-26T02:31:26.340Z,79.70
2023-12-26T02:33:53.616Z,79.66
2023-12-26T02:36:21.720Z,80.09
2023-12-26T02:38:48.771Z,78.82
2023-12-26T02:41:15.746Z,78.64
2023-12-26T02:43:42.618Z,79.25
2023-12-26T02:46:09.418Z,79.91
2023-12-26T02:48:37.336Z,79.07
2023-12-26T02:51:09.366Z,78.93
2023-12-26T02:53:36.487Z,79.93
2023-12-26T02:56:03.841Z,79.97
2023-12-26T02:58:31.011Z,80.48
2023-12-26T03:00:58.114Z,80.01
2023-12-26T03:03:25.986Z,79.01
2023-12-26T03:05:53.189Z,79.38
2023-12-26T03:08:20.139Z,78.88
2023-12-26T03:10:47.603Z,78.85
2023-12-26T03:13:17.159Z,78.33
2023-12-26T03:15:44.222Z,78.02
2023-12-26T03:18:11.136Z,77.72
2023-12-26T03:20:44.794Z,77.80
2023-12-26T03:23:11.930Z,77.31
2023-12-26T03:25:39.515Z,77.29
2023-12-26T03:28:07.648Z,77.31
2023-12-26T03:30:34.896Z,77.57
2023-12-26T03:33:04.900Z,77.34
2023-12-26T03:35:34.964Z,77.72
2023-12-26T03:38:01.825Z,77.45
2023-12-26T03:40:28.630Z,77.64
2023-12-26T03:42:57.338Z,78.13
2023-12-26T03:45:27.832Z,78.46
2023-12-26T03:47:55.212Z,79.34
2023-12-26T03:50:22.394Z,79.93
2023-12-26T03:52:49.212Z,79.28
2023-12-26T03:55:16.396Z,79.18
2023-12-26T03:57:43.653Z,79.10
2023-12-26T04:00:11.496Z,78.94
2023-12-26T04:02:44.178Z,78.37
2023-12-26T04:05:14.655Z,78.08
2023-12-26T04:07:42.285Z,78.02
2023-12-26T04:10:10.134Z,78.69
2023-12-26T04:12:37.679Z,79.26
2023-12-26T04:15:05.541Z,79.65
2023-12-26T04:17:33.328Z,79.52
2023-12-26T04:20:00.343Z,80.48
2023-12-26T04:22:27.414Z,80.87
2023-12-26T04:24:54.369Z,80.22
2023-12-26T04:27:21.633Z,80.55
2023-12-26T04:29:48.512Z,80.27
2023-12-26T04:32:15.898Z,79.67
2023-12-26T04:34:43.022Z,79.38
2023-12-26T04:37:10.417Z,79.49
2023-12-26T04:39:40.594Z,78.20
2023-12-26T04:42:07.885Z,78.68
2023-12-26T04:44:34.817Z,77.99
2023-12-26T04:47:01.732Z,79.35
2023-12-26T04:49:29.070Z,78.85
2023-12-26T04:51:55.969Z,78.56
2023-12-26T04:54:23.093Z,78.05
2023-12-26T04:56:50.234Z,78.11
2023-12-26T04:59:17.292Z,77.52
2023-12-26T05:01:44.610Z,77.04
2023-12-26T05:04:11.986Z,76.65
2023-12-26T05:06:39.267Z,77.58
2023-12-26T05:09:06.953Z,77.38
2023-12-26T05:11:36.196Z,77.58
2023-12-26T05:14:03.186Z,77.70
2023-12-26T05:16:31.384Z,78.13
2023-12-26T05:18:58.962Z,78.49
2023-12-26T05:21:28.808Z,78.94
2023-12-26T05:23:56.092Z,78.24
2023-12-26T05:26:23.415Z,77.57
2023-12-26T05:28:51.142Z,77.72
2023-12-26T05:31:21.924Z,76.83
2023-12-26T05:33:51.888Z,77.30
2023-12-26T05:36:20.027Z,77.63
2023-12-26T05:38:47.266Z,77.79
2023-12-26T05:41:14.903Z,77.72
2023-12-26T05:43:41.969Z,78.58
2023-12-26T05:46:09.526Z,78.08
2023-12-26T05:48:43.918Z,77.99
2023-12-26T05:51:11.533Z,78.72
2023-12-26T05:53:38.878Z,78.79
2023-12-26T05:56:05.990Z,78.32
2023-12-26T05:58:32.847Z,78.13
2023-12-26T06:01:03.396Z,78.33
2023-12-26T06:03:30.928Z,78.21
2023-12-26T06:06:01.040Z,78.29
2023-12-26T06:08:28.857Z,78.65
2023-12-26T06:10:56.092Z,78.27
2023-12-26T06:13:23.427Z,79.19
2023-12-26T06:15:51.690Z,78.87
2023-12-26T06:18:18.705Z,79.65
2023-12-26T06:20:45.798Z,79.56
2023-12-26T06:23:13.797Z,78.72
2023-12-26T06:25:40.877Z,78.77
2023-12-26T06:28:08.316Z,79.17
2023-12-26T06:30:35.967Z,78.98
2023-12-26T06:33:03.621Z,78.86
2023-12-26T06:35:30.822Z,78.97
2023-12-26T06:37:58.229Z,78.53
2023-12-26T06:40:26.065Z,78.60
2023-12-26T06:42:54.074Z,78.37
2023-12-26T06:45:21.193Z,79.06
2023-12-26T06:47:48.209Z,78.75
2023-12-26T06:50:16.252Z,79.41
2023-12-26T06:52:43.177Z,78.91
2023-12-26T06:55:10.170Z,78.83
2023-12-26T06:57:37.070Z,78.40
2023-12-26T07:00:06.600Z,78.80
2023-12-26T07:02:33.673Z,78.34
2023-12-26T07:05:01.320Z,78.20
2023-12-26T07:07:28.346Z,78.38
2023-12-26T07:09:55.141Z,77.76
2023-12-26T07:12:22.036Z,77.86
2023-12-26T07:14:49.025Z,77.88
2023-12-26T07:17:15.883Z,77.92
2023-12-26T07:19:42.771Z,77.64
2023-12-26T07:22:09.775Z,77.70
2023-12-26T07:24:36.709Z,78.13
2023-12-26T07:27:03.948Z,77.72
2023-12-26T07:29:31.321Z,77.85
2023-12-26T07:31:58.512Z,77.75
2023-12-26T07:34:28.631Z,77.68
2023-12-26T07:36:58.722Z,77.72
2023-12-26T07:39:25.728Z,77.49
2023-12-26T07:41:53.095Z,77.39
2023-12-26T07:44:20.462Z,76.90
2023-12-26T07:52:09.013Z,77.02
2023-12-26T07:54:36.012Z,76.93
2023-12-26T07:57:03.522Z,76.71
2023-12-26T07:59:30.967Z,76.59
2023-12-26T08:01:57.995Z,76.32
2023-12-26T08:04:25.029Z,76.54
2023-12-26T08:06:53.186Z,76.33
2023-12-26T08:09:20.750Z,76.31
2023-12-26T08:11:50.670Z,76.27
2023-12-26T08:14:19.397Z,76.17
2023-12-26T08:16:46.890Z,75.91
2023-12-26T08:19:15.134Z,75.77
2023-12-26T08:21:51.907Z,76.66
2023-12-26T08:24:19.379Z,76.70
2023-12-26T08:26:46.373Z,76.79
2023-12-26T08:29:13.521Z,76.42
2023-12-26T08:31:40.514Z,77.01
2023-12-26T08:34:07.404Z,78.07
2023-12-26T08:36:34.569Z,78.17
2023-12-26T08:39:10.499Z,78.34
2023-12-26T08:41:37.378Z,77.88
2023-12-26T08:44:04.496Z,77.41
2023-12-26T08:46:32.030Z,77.09
2023-12-26T08:48:59.074Z,76.81
2023-12-26T08:51:25.982Z,76.77
2023-12-26T08:53:53.277Z,76.24
2023-12-26T08:56:20.188Z,76.95
2023-12-26T08:58:46.946Z,77.11
2023-12-26T09:01:14.013Z,76.60
2023-12-26T09:03:42.652Z,76.98
2023-12-26T09:06:13.207Z,76.97
2023-12-26T09:08:40.528Z,77.04
2023-12-26T09:11:07.473Z,76.95
2023-12-26T09:13:34.231Z,76.63
2023-12-26T09:16:01.057Z,76.16
2023-12-26T09:18:27.970Z,76.33
2023-12-26T09:20:55.777Z,76.73
2023-12-26T09:23:22.585Z,75.82
2023-12-26T09:25:49.284Z,76.08
2023-12-26T09:28:18.130Z,75.97
2023-12-26T09:30:44.999Z,75.72
2023-12-26T09:33:11.946Z,76.20
2023-12-26T09:35:38.817Z,75.08
2023-12-26T09:38:05.561Z,76.02
2023-12-26T09:40:32.473Z,75.47
2023-12-26T09:43:03.410Z,75.92
2023-12-26T09:45:32.514Z,75.31
2023-12-26T09:47:59.982Z,75.24
2023-12-26T09:50:27.193Z,75.01
2023-12-26T09:53:01.367Z,74.75
2023-12-26T09:55:31.151Z,75.20
2023-12-26T09:58:01.403Z,74.38
2023-12-26T10:00:28.590Z,73.95
2023-12-26T10:03:53.198Z,74.01
2023-12-26T10:06:20.846Z,74.16
2023-12-26T10:08:47.788Z,74.35
2023-12-26T10:11:15.086Z,73.75
2023-12-26T10:13:51.827Z,73.40
2023-12-26T10:16:21.803Z,73.40
2023-12-26T10:18:52.691Z,72.99
2023-12-26T10:21:19.679Z,72.89
2023-12-26T10:23:47.405Z,73.00
2023-12-26T10:26:18.487Z,73.47
2023-12-26T10:29:01.786Z,73.41
2023-12-26T10:31:29.922Z,73.29
2023-12-26T10:36:53.879Z,72.76
2023-12-26T10:37:26.466Z,72.26
2023-12-26T10:39:53.306Z,72.30
2023-12-26T10:42:20.287Z,71.11
2023-12-26T10:44:48.071Z,70.88
2023-12-26T10:47:15.560Z,71.07
2023-12-26T10:50:30.960Z,70.58
2023-12-26T10:52:55.835Z,70.14
2023-12-26T10:55:23.589Z,69.15
2023-12-26T10:57:51.831Z,69.20
2023-12-26T11:00:26.427Z,69.46
2023-12-26T11:02:53.515Z,70.08
2023-12-26T11:05:20.519Z,70.49
2023-12-26T11:07:47.577Z,69.83
2023-12-26T11:10:14.536Z,69.56
2023-12-26T11:12:43.257Z,69.91
2023-12-26T11:15:10.400Z,68.70
2023-12-26T11:17:37.756Z,68.91
2023-12-26T11:20:04.641Z,68.04
2023-12-26T11:22:33.545Z,67.51
2023-12-26T11:25:00.492Z,67.88
2023-12-26T11:27:27.796Z,67.36
2023-12-26T11:29:54.701Z,67.68
2023-12-26T11:32:21.759Z,67.42
2023-12-26T11:34:50.609Z,67.20
2023-12-26T11:38:22.673Z,67.72
2023-12-26T11:40:47.780Z,67.63
2023-12-26T11:43:16.902Z,68.55
2023-12-26T11:45:44.933Z,68.91
2023-12-26T11:48:12.364Z,68.86
2023-12-26T11:50:39.425Z,68.12
2023-12-26T11:53:06.654Z,67.81
2023-12-26T11:55:33.484Z,68.21
2023-12-26T11:58:00.223Z,67.66
2023-12-26T12:00:27.175Z,67.61
2023-12-26T12:02:54.211Z,68.77
2023-12-26T12:05:21.036Z,68.19
2023-12-26T12:08:13.829Z,67.96
2023-12-26T12:11:09.965Z,68.30
2023-12-26T12:13:46.888Z,68.86
2023-12-26T12:16:24.070Z,67.97
2023-12-26T12:19:14.866Z,67.88
2023-12-26T12:21:41.838Z,67.67
2023-12-26T12:24:08.973Z,67.27
2023-12-26T12:27:06.798Z,67.27
2023-12-26T12:30:02.290Z,66.88
2023-12-26T12:32:36.966Z,67.72
2023-12-26T12:35:20.494Z,68.56
2023-12-26T12:37:49.236Z,68.33
2023-12-26T12:40:16.842Z,68.00
2023-12-26T12:42:43.779Z,66.97
2023-12-26T12:45:10.839Z,66.97
2023-12-26T12:47:38.735Z,67.26
2023-12-26T12:50:05.856Z,66.90
2023-12-26T12:52:32.985Z,67.26
2023-12-26T12:54:59.852Z,67.69
2023-12-26T12:57:26.813Z,66.38
2023-12-26T12:59:53.712Z,66.54
2023-12-26T13:02:20.776Z,66.37
2023-12-26T13:04:47.583Z,66.46
2023-12-26T13:07:14.674Z,67.14
2023-12-26T13:09:42.065Z,67.31
2023-12-26T13:12:08.954Z,68.50
2023-12-26T13:14:36.765Z,67.47
2023-12-26T13:17:04.015Z,67.34
2023-12-26T13:19:34.616Z,68.59
2023-12-26T13:22:03.031Z,68.24
2023-12-26T13:24:29.981Z,68.14
2023-12-26T13:26:56.874Z,67.82
2023-12-26T13:29:24.769Z,67.76
2023-12-26T13:31:52.419Z,67.47
2023-12-26T13:34:19.945Z,67.47
2023-12-26T13:36:46.776Z,67.54
2023-12-26T13:39:13.691Z,67.12
2023-12-26T13:41:42.072Z,67.10
2023-12-26T13:44:18.496Z,67.26
2023-12-26T13:46:45.320Z,67.22
2023-12-26T13:49:12.368Z,67.20
2023-12-26T13:51:45.134Z,66.56
2023-12-26T13:54:13.921Z,66.50
2023-12-26T13:56:40.752Z,66.54
2023-12-26T13:59:07.628Z,67.28
2023-12-26T14:01:34.561Z,67.58
2023-12-26T14:04:02.315Z,67.42
2023-12-26T14:06:29.908Z,67.00
2023-12-26T14:08:56.758Z,67.39
2023-12-26T14:11:24.342Z,67.90
2023-12-26T14:13:51.194Z,68.16
2023-12-26T14:16:24.476Z,68.09
2023-12-26T14:18:51.583Z,69.09
2023-12-26T14:21:18.678Z,68.65
2023-12-26T14:23:45.579Z,68.36
2023-12-26T14:26:12.382Z,68.64
2023-12-26T14:28:39.127Z,68.41
2023-12-26T14:31:06.196Z,68.32
2023-12-26T14:33:33.405Z,68.75
2023-12-26T14:36:00.724Z,68.82
2023-12-26T14:38:27.571Z,68.87
2023-12-26T14:41:03.131Z,68.75
2023-12-26T14:43:30.095Z,69.39
2023-12-26T14:45:56.960Z,69.67
2023-12-26T14:48:23.978Z,69.69
2023-12-26T14:50:51.040Z,69.63
2023-12-26T14:53:17.800Z,70.04
2023-12-26T14:55:44.569Z,70.48
2023-12-26T14:58:11.868Z,71.03
2023-12-26T15:00:39.099Z,70.92
2023-12-26T15:03:06.784Z,71.18
2023-12-26T15:05:35.788Z,72.17
2023-12-26T15:08:04.211Z,72.17
2023-12-26T15:10:32.513Z,72.55
2023-12-26T15:13:01.418Z,72.30
2023-12-26T15:15:28.225Z,73.08
2023-12-26T15:17:55.154Z,73.25
2023-12-26T15:20:22.665Z,74.19
2023-12-26T15:22:50.668Z,74.62
2023-12-26T15:25:17.432Z,74.76
2023-12-26T15:27:44.254Z,74.95
2023-12-26T15:30:12.206Z,75.26
2023-12-26T15:32:40.587Z,75.18
2023-12-26T15:35:08.743Z,76.16
2023-12-26T15:37:35.544Z,76.89
2023-12-26T15:40:02.805Z,76.47
2023-12-26T15:42:29.659Z,76.62
2023-12-26T15:44:56.572Z,77.21
2023-12-26T15:47:23.805Z,77.75
2023-12-26T15:49:50.804Z,77.85
2023-12-26T15:52:17.834Z,77.62
2023-12-26T15:54:44.779Z,77.89
2023-12-26T15:57:11.667Z,78.23
2023-12-26T15:59:38.441Z,78.30
2023-12-26T16:02:06.073Z,78.76
2023-12-26T16:04:32.999Z,79.28
2023-12-26T16:07:00.073Z,78.80
2023-12-26T16:09:29.949Z,79.63
2023-12-26T16:11:57.829Z,79.51
2023-12-26T16:14:27.588Z,79.75
2023-12-26T16:16:56.012Z,80.04
2023-12-26T16:19:23.045Z,80.96
2023-12-26T16:21:49.931Z,80.48
2023-12-26T16:24:16.696Z,80.65
2023-12-26T16:26:47.326Z,81.00
2023-12-26T16:29:14.428Z,81.73
2023-12-26T16:31:41.374Z,81.21
2023-12-26T16:34:08.494Z,80.87
2023-12-26T16:36:35.485Z,80.66
2023-12-26T16:39:02.368Z,80.58
2023-12-26T16:41:29.279Z,80.87
2023-12-26T16:43:56.055Z,80.59
2023-12-26T16:46:22.965Z,81.70
2023-12-26T16:48:50.279Z,81.24
2023-12-26T16:51:17.403Z,81.16
2023-12-26T16:53:44.237Z,81.48
2023-12-26T16:56:11.946Z,81.11
2023-12-26T16:58:42.873Z,80.88
2023-12-26T17:01:10.800Z,81.30
2023-12-26T17:03:41.972Z,81.39
2023-12-26T17:06:09.383Z,80.98
2023-12-26T17:08:36.377Z,81.43
2023-12-26T17:11:09.390Z,81.18
2023-12-26T17:13:36.270Z,81.39
2023-12-26T17:16:03.274Z,81.76
2023-12-26T17:18:30.247Z,82.31
2023-12-26T17:20:57.632Z,83.08
2023-12-26T17:23:24.942Z,82.21
2023-12-26T17:25:51.733Z,82.52
2023-12-26T17:28:19.380Z,82.24
2023-12-26T17:30:46.615Z,82.24
2023-12-26T17:33:13.800Z,82.38
2023-12-26T17:35:40.626Z,81.99
2023-12-26T17:38:07.401Z,81.93
2023-12-26T17:40:34.169Z,82.36
2023-12-26T17:43:01.191Z,82.42
2023-12-26T17:45:29.943Z,82.20
2023-12-26T17:48:00.517Z,82.08
2023-12-26T17:50:32.805Z,82.06
2023-12-26T17:52:59.766Z,82.30
2023-12-26T17:55:26.598Z,82.22
2023-12-26T17:57:53.692Z,81.63
2023-12-26T18:00:22.636Z,81.52
2023-12-26T18:02:49.443Z,81.43
2023-12-26T18:05:16.246Z,80.58
2023-12-26T18:07:43.097Z,80.34
2023-12-26T18:10:10.266Z,80.22
2023-12-26T18:12:37.270Z,80.25
2023-12-26T18:15:04.459Z,80.42
2023-12-26T18:17:32.127Z,79.95
2023-12-26T18:19:59.130Z,80.22
2023-12-26T18:22:25.982Z,79.64
2023-12-26T18:24:52.881Z,79.62
2023-12-26T18:27:19.903Z,79.49
2023-12-26T18:29:46.697Z,80.06
2023-12-26T18:32:13.779Z,79.56
2023-12-26T18:34:43.994Z,79.49
2023-12-26T18:37:11.888Z,79.63
2023-12-26T18:39:38.769Z,79.56
2023-12-26T18:42:08.862Z,79.85
2023-12-26T18:44:36.991Z,80.33
2023-12-26T18:47:03.839Z,80.06
2023-12-26T18:49:30.873Z,80.23
2023-12-26T18:51:57.733Z,79.85
2023-12-26T18:54:24.520Z,80.11
2023-12-26T18:56:51.410Z,79.90
2023-12-26T18:59:18.629Z,79.84
2023-12-26T19:01:45.456Z,79.88
2023-12-26T19:04:12.766Z,79.46
2023-12-26T19:06:40.031Z,79.25
2023-12-26T19:09:07.585Z,79.26
2023-12-26T19:11:34.420Z,79.33
2023-12-26T19:14:01.524Z,79.74
2023-12-26T19:16:28.349Z,79.92
2023-12-26T19:18:55.234Z,79.73
2023-12-26T19:21:22.136Z,79.13
2023-12-26T19:23:49.226Z,79.05
2023-12-26T19:26:16.477Z,78.87
2023-12-26T19:28:43.266Z,79.17
2023-12-26T19:31:13.915Z,79.22
2023-12-26T19:33:41.576Z,79.51
2023-12-26T19:36:09.396Z,79.80
2023-12-26T19:38:40.271Z,80.24
2023-12-26T19:41:08.964Z,79.85
2023-12-26T19:43:36.503Z,79.77
2023-12-26T19:46:03.525Z,80.15
2023-12-26T19:48:30.709Z,80.41
2023-12-26T19:50:57.846Z,80.28
2023-12-26T19:53:24.751Z,80.51
2023-12-26T19:55:51.978Z,80.66
2023-12-26T19:58:19.238Z,81.04
2023-12-26T20:00:46.256Z,81.50
2023-12-26T20:03:22.492Z,81.18
2023-12-26T20:05:58.840Z,81.42
2023-12-26T20:08:26.755Z,81.66
2023-12-26T20:10:53.778Z,81.91
2023-12-26T20:13:20.777Z,81.84
2023-12-26T20:15:47.883Z,81.51
2023-12-26T20:18:15.213Z,81.82
2023-12-26T20:20:42.475Z,81.69
2023-12-26T20:23:09.283Z,82.04
2023-12-26T20:25:36.168Z,81.88
2023-12-26T20:28:08.819Z,81.92
2023-12-26T20:30:36.284Z,81.44
2023-12-26T20:33:13.322Z,82.49
2023-12-26T20:35:40.643Z,82.11
2023-12-26T20:38:07.594Z,82.51
2023-12-26T20:40:34.928Z,82.18
2023-12-26T20:43:01.919Z,82.38
2023-12-26T20:45:28.874Z,82.08
2023-12-26T20:47:56.606Z,81.93
2023-12-26T20:50:24.177Z,82.21
2023-12-26T20:52:54.490Z,81.93
2023-12-26T20:55:21.434Z,83.32
2023-12-26T20:57:48.394Z,83.22
2023-12-26T21:00:16.451Z,83.31
2023-12-26T21:02:43.557Z,83.32
2023-12-26T21:05:10.379Z,83.28
2023-12-26T21:07:37.572Z,83.49
2023-12-26T21:10:06.693Z,83.27
2023-12-26T21:12:33.674Z,83.87
2023-12-26T21:15:00.714Z,84.25
2023-12-26T21:17:27.634Z,85.09
2023-12-26T21:19:54.554Z,83.96
2023-12-26T21:22:21.454Z,83.88
2023-12-26T21:24:48.382Z,83.74
2023-12-26T21:27:15.298Z,83.75
2023-12-26T21:29:42.333Z,83.62
2023-12-26T21:32:09.550Z,83.36
2023-12-26T21:34:36.734Z,83.42
2023-12-26T21:37:04.104Z,83.41
2023-12-26T21:39:31.180Z,83.03
2023-12-26T21:41:58.278Z,83.21
2023-12-26T21:44:25.362Z,83.19
2023-12-26T21:46:52.162Z,83.51
2023-12-26T21:49:19.144Z,83.45
2023-12-26T21:51:46.090Z,83.54
2023-12-26T21:54:13.149Z,82.63
2023-12-26T21:56:39.954Z,82.03
2023-12-26T21:59:07.379Z,82.21
2023-12-26T22:01:34.864Z,82.03
2023-12-26T22:04:01.914Z,82.44
2023-12-26T22:06:28.817Z,82.33
2023-12-26T22:08:56.443Z,82.90
2023-12-26T22:11:23.653Z,82.91
2023-12-26T22:13:50.493Z,82.96
2023-12-26T22:16:22.286Z,83.30
2023-12-26T22:18:53.808Z,82.82
2023-12-26T22:21:21.097Z,83.24
2023-12-26T22:23:48.017Z,82.93
2023-12-26T22:26:15.308Z,83.16
2023-12-26T22:28:42.238Z,83.31
2023-12-26T22:31:20.313Z,82.97
2023-12-26T22:33:48.999Z,83.25
2023-12-26T22:38:43.167Z,83.08
2023-12-26T22:41:20.518Z,82.56
2023-12-26T22:43:47.714Z,83.52
2023-12-26T22:46:23.303Z,83.43
2023-12-26T22:48:54.214Z,83.06
2023-12-26T22:51:22.463Z,82.85
2023-12-26T22:53:50.120Z,82.96
2023-12-26T22:56:17.252Z,82.70
2023-12-26T22:58:44.044Z,82.76
2023-12-26T23:01:11.890Z,82.82
2023-12-26T23:03:39.204Z,82.58
2023-12-26T23:06:06.444Z,82.67
2023-12-26T23:08:33.417Z,83.40
2023-12-26T23:11:00.395Z,83.99
2023-12-26T23:13:28.029Z,83.35
2023-12-26T23:15:55.062Z,81.92
2023-12-26T23:18:22.231Z,82.92
2023-12-26T23:20:51.963Z,82.94
2023-12-26T23:23:18.836Z,82.30
2023-12-26T23:25:45.708Z,82.08
2023-12-26T23:28:12.605Z,81.73
2023-12-26T23:30:39.782Z,81.84
2023-12-26T23:33:06.849Z,82.72
2023-12-26T23:35:33.882Z,82.66
2023-12-26T23:38:00.907Z,81.76
2023-12-26T23:40:27.985Z,81.45
2023-12-26T23:42:54.760Z,81.76
2023-12-26T23:45:21.745Z,81.11
2023-12-26T23:47:48.739Z,81.05
2023-12-26T23:50:15.909Z,81.68
2023-12-26T23:52:43.614Z,81.65
2023-12-26T23:55:11.163Z,82.31
2023-12-26T23:57:38.163Z,81.42
